createdAt,value
2023-03-18T00:01:33.744Z,1.30
2023-03-18T00:05:15.883Z,1.24
2023-03-18T00:08:51.292Z,1.20
2023-03-18T00:15:23.692Z,1.21
2023-03-18T00:17:56.304Z,1.22
2023-03-18T00:20:39.199Z,1.21
2023-03-18T00:23:13.476Z,1.22
2023-03-18T00:25:48.963Z,1.21
2023-03-18T00:28:22.080Z,1.26
2023-03-18T00:30:57.850Z,1.29
2023-03-18T00:33:34.523Z,1.26
2023-03-18T00:36:10.683Z,1.24
2023-03-18T00:38:44.300Z,1.24
2023-03-18T00:41:16.538Z,1.10
2023-03-18T00:43:53.074Z,0.99
2023-03-18T00:46:29.903Z,0.92
2023-03-18T00:49:05.749Z,0.87
2023-03-18T00:51:42.392Z,0.76
2023-03-18T00:54:18.734Z,0.70
2023-03-18T00:56:59.983Z,0.63
2023-03-18T00:59:33.668Z,0.63
2023-03-18T01:03:08.486Z,0.52
2023-03-18T01:06:42.338Z,0.48
2023-03-18T01:10:18.252Z,0.46
2023-03-18T01:13:52.293Z,0.39
2023-03-18T01:16:24.389Z,0.40
2023-03-18T01:18:57.675Z,0.34
2023-03-18T01:21:41.934Z,0.34
2023-03-18T01:24:16.634Z,0.31
2023-03-18T01:26:51.339Z,0.30
2023-03-18T01:29:24.241Z,0.31
2023-03-18T01:34:35.926Z,0.25
2023-03-18T01:36:54.304Z,0.23
2023-03-18T01:43:56.685Z,0.19
2023-03-18T01:46:40.449Z,0.18
2023-03-18T01:49:14.473Z,0.19
2023-03-18T01:51:53.011Z,0.15
2023-03-18T01:54:27.664Z,0.10
2023-03-18T01:57:01.351Z,-0.02
2023-03-18T01:59:39.218Z,0.00
2023-03-18T02:02:13.787Z,0.01
2023-03-18T02:04:52.047Z,-0.01
2023-03-18T02:07:28.469Z,0.02
2023-03-18T02:10:05.660Z,-0.01
2023-03-18T02:12:41.708Z,-0.04
2023-03-18T02:15:25.684Z,-0.04
2023-03-18T02:18:07.171Z,0.05
2023-03-18T02:21:00.274Z,0.02
2023-03-18T02:23:55.252Z,-0.02
2023-03-18T02:26:34.930Z,-0.07
2023-03-18T02:29:10.481Z,-0.10
2023-03-18T02:32:45.187Z,-0.05
2023-03-18T02:43:29.402Z,0.02
2023-03-18T02:46:38.010Z,0.02
2023-03-18T02:49:18.101Z,0.04
2023-03-18T02:51:53.584Z,0.05
2023-03-18T02:54:31.829Z,0.08
2023-03-18T02:57:04.698Z,0.03
2023-03-18T02:59:40.435Z,0.06
2023-03-18T03:03:17.211Z,0.20
2023-03-18T03:06:52.826Z,0.23
2023-03-18T03:10:28.946Z,0.23
2023-03-18T03:14:04.789Z,0.13
2023-03-18T03:16:38.834Z,0.12
2023-03-18T03:19:11.995Z,0.12
2023-03-18T03:21:45.336Z,0.12
2023-03-18T03:24:18.596Z,0.12
2023-03-18T03:26:55.962Z,0.11
2023-03-18T03:29:29.846Z,0.05
2023-03-18T03:33:03.779Z,-0.05
2023-03-18T03:36:43.570Z,-0.08
2023-03-18T03:43:44.046Z,-0.21
2023-03-18T03:46:17.247Z,-0.17
2023-03-18T03:48:51.089Z,-0.19
2023-03-18T03:51:24.446Z,-0.20
2023-03-18T03:53:55.929Z,-0.21
2023-03-18T03:56:28.986Z,-0.28
2023-03-18T03:59:02.930Z,-0.29
2023-03-18T04:01:50.196Z,-0.30
2023-03-18T04:04:22.907Z,-0.29
2023-03-18T04:06:57.009Z,-0.33
2023-03-18T04:09:30.919Z,-0.30
2023-03-18T04:12:04.441Z,-0.24
2023-03-18T04:14:37.856Z,-0.23
2023-03-18T04:18:12.402Z,-0.28
2023-03-18T04:29:43.959Z,-0.45
2023-03-18T04:32:17.959Z,-0.47
2023-03-18T04:34:52.425Z,-0.47
2023-03-18T04:37:27.143Z,-0.46
2023-03-18T04:40:02.274Z,-0.44
2023-03-18T04:42:35.701Z,-0.39
2023-03-18T04:45:10.891Z,-0.41
2023-03-18T04:48:49.374Z,-0.42
2023-03-18T04:52:24.930Z,-0.43
2023-03-18T04:59:25.551Z,-0.49
2023-03-18T05:01:59.991Z,-0.48
2023-03-18T05:04:34.553Z,-0.49
2023-03-18T05:07:07.633Z,-0.43
2023-03-18T05:09:44.192Z,-0.45
2023-03-18T05:12:18.701Z,-0.42
2023-03-18T05:14:54.022Z,-0.46
2023-03-18T05:17:27.820Z,-0.44
2023-03-18T05:20:05.252Z,-0.43
2023-03-18T05:22:38.992Z,-0.41
2023-03-18T05:25:19.842Z,-0.34
2023-03-18T05:27:54.803Z,-0.31
2023-03-18T05:30:41.741Z,-0.16
2023-03-18T05:34:15.446Z,0.03
2023-03-18T05:41:37.679Z,0.14
2023-03-18T05:45:08.007Z,0.25
2023-03-18T05:47:45.556Z,0.27
2023-03-18T05:50:29.336Z,0.32
2023-03-18T05:53:02.550Z,0.38
2023-03-18T05:55:40.561Z,0.44
2023-03-18T05:58:15.278Z,0.50
2023-03-18T06:00:49.940Z,0.63
2023-03-18T06:03:25.455Z,0.74
2023-03-18T06:05:58.263Z,0.75
2023-03-18T06:08:33.201Z,0.83
2023-03-18T06:11:06.233Z,0.90
2023-03-18T06:13:47.545Z,0.97
2023-03-18T06:17:21.372Z,1.10
2023-03-18T06:21:07.362Z,1.34
2023-03-18T06:27:50.013Z,1.74
2023-03-18T06:31:11.156Z,1.92
2023-03-18T06:33:46.914Z,2.00
2023-03-18T06:36:24.504Z,2.15
2023-03-18T06:39:02.127Z,2.27
2023-03-18T06:41:35.942Z,2.33
2023-03-18T06:44:31.340Z,2.42
2023-03-18T06:48:07.812Z,2.77
2023-03-18T06:51:44.170Z,3.11
2023-03-18T06:55:19.379Z,3.03
2023-03-18T06:59:22.135Z,2.91
2023-03-18T07:02:00.555Z,3.01
2023-03-18T07:04:36.023Z,3.11
2023-03-18T07:07:10.762Z,3.21
2023-03-18T07:09:41.544Z,3.33
2023-03-18T07:12:16.824Z,3.23
2023-03-18T07:14:50.661Z,3.62
2023-03-18T07:18:24.759Z,3.75
2023-03-18T07:21:58.383Z,3.94
2023-03-18T07:25:35.903Z,4.30
2023-03-18T07:29:02.716Z,4.46
2023-03-18T07:31:37.572Z,4.36
2023-03-18T07:34:13.193Z,4.29
2023-03-18T07:36:47.577Z,4.18
2023-03-18T07:39:20.642Z,4.29
2023-03-18T07:41:54.034Z,4.32
2023-03-18T07:44:30.131Z,4.55
2023-03-18T07:48:03.808Z,4.67
2023-03-18T07:51:27.949Z,4.98
2023-03-18T07:59:18.510Z,5.23
2023-03-18T08:01:52.919Z,5.40
2023-03-18T08:04:24.365Z,5.21
2023-03-18T08:06:58.231Z,5.47
2023-03-18T08:09:31.341Z,5.67
2023-03-18T08:12:06.904Z,5.80
2023-03-18T08:14:40.942Z,5.74
2023-03-18T08:17:14.361Z,5.78
2023-03-18T08:19:47.723Z,6.02
2023-03-18T08:22:21.513Z,5.88
2023-03-18T08:24:54.951Z,5.91
2023-03-18T08:27:31.569Z,5.97
2023-03-18T08:30:04.909Z,6.07
2023-03-18T08:32:40.405Z,6.06
2023-03-18T08:35:14.894Z,6.13
2023-03-18T08:37:49.393Z,6.41
2023-03-18T08:40:22.792Z,6.63
2023-03-18T08:42:55.815Z,6.79
2023-03-18T08:45:29.271Z,6.92
2023-03-18T08:49:02.845Z,7.09
2023-03-18T08:52:40.911Z,7.23
2023-03-18T09:06:04.172Z,7.65
2023-03-18T09:09:43.523Z,7.50
2023-03-18T09:13:18.370Z,7.74
2023-03-18T09:16:24.092Z,7.60
2023-03-18T09:18:57.825Z,7.61
2023-03-18T09:21:31.869Z,7.48
2023-03-18T09:24:07.378Z,7.66
2023-03-18T09:26:41.663Z,7.60
2023-03-18T09:29:16.366Z,7.61
2023-03-18T09:31:49.826Z,7.80
2023-03-18T09:34:23.356Z,7.77
2023-03-18T09:36:54.020Z,7.94
2023-03-18T09:39:27.549Z,8.11
2023-03-18T09:42:20.649Z,8.32
2023-03-18T09:44:59.911Z,8.55
2023-03-18T09:48:01.365Z,8.58
2023-03-18T09:50:56.726Z,8.67
2023-03-18T09:53:41.849Z,8.86
2023-03-18T09:56:19.772Z,8.87
2023-03-18T09:59:09.028Z,8.82
2023-03-18T10:01:45.312Z,8.81
2023-03-18T10:04:23.379Z,8.93
2023-03-18T10:07:06.371Z,8.87
2023-03-18T10:09:46.999Z,9.13
2023-03-18T10:12:31.459Z,9.34
2023-03-18T10:15:16.877Z,9.59
2023-03-18T10:17:55.820Z,9.96
2023-03-18T10:20:36.201Z,10.19
2023-03-18T10:23:21.982Z,10.01
2023-03-18T10:25:57.643Z,10.09
2023-03-18T10:28:45.085Z,10.26
2023-03-18T10:31:33.990Z,10.29
2023-03-18T10:34:13.921Z,10.56
2023-03-18T10:36:57.667Z,10.50
2023-03-18T10:39:36.050Z,10.59
2023-03-18T10:42:23.233Z,10.45
2023-03-18T10:45:11.288Z,10.66
2023-03-18T10:48:50.254Z,10.32
2023-03-18T10:52:21.936Z,10.41
2023-03-18T10:56:05.297Z,10.48
2023-03-18T10:59:38.930Z,10.54
2023-03-18T11:03:23.836Z,11.01
2023-03-18T11:07:00.574Z,11.06
2023-03-18T11:11:05.426Z,11.15
2023-03-18T11:14:43.454Z,11.40
2023-03-18T11:17:28.590Z,11.44
2023-03-18T11:20:22.287Z,11.29
2023-03-18T11:22:58.288Z,11.49
2023-03-18T11:25:31.734Z,11.66
2023-03-18T11:28:09.205Z,11.74
2023-03-18T11:30:50.284Z,11.71
2023-03-18T11:33:34.876Z,11.75
2023-03-18T11:36:16.425Z,11.74
2023-03-18T11:39:00.831Z,11.68
2023-03-18T11:41:33.832Z,11.83
2023-03-18T11:44:18.908Z,11.97
2023-03-18T11:47:52.543Z,11.35
2023-03-18T11:51:51.360Z,11.52
2023-03-18T12:09:01.073Z,11.97
2023-03-18T12:12:44.783Z,12.23
2023-03-18T12:16:24.378Z,12.00
2023-03-18T12:19:27.025Z,12.03
2023-03-18T12:22:14.384Z,11.97
2023-03-18T12:25:05.855Z,11.74
2023-03-18T12:27:50.680Z,12.01
2023-03-18T12:30:46.044Z,12.13
2023-03-18T12:33:40.915Z,11.81
2023-03-18T12:36:29.486Z,12.08
2023-03-18T12:39:16.607Z,12.24
2023-03-18T12:42:02.439Z,12.29
2023-03-18T12:45:01.998Z,12.38
2023-03-18T12:48:44.546Z,12.30
2023-03-18T12:52:30.726Z,12.44
2023-03-18T12:56:13.747Z,12.39
2023-03-18T12:59:53.253Z,12.45
2023-03-18T13:02:45.296Z,12.47
2023-03-18T13:05:42.081Z,12.40
2023-03-18T13:08:43.028Z,12.42
2023-03-18T13:11:31.337Z,12.37
2023-03-18T13:14:14.901Z,12.14
2023-03-18T13:16:50.734Z,12.23
2023-03-18T13:20:32.680Z,12.37
2023-03-18T13:24:36.737Z,12.44
2023-03-18T13:31:29.572Z,12.59
2023-03-18T13:34:40.828Z,12.63
2023-03-18T13:37:49.993Z,12.52
2023-03-18T13:40:52.903Z,12.63
2023-03-18T13:43:28.097Z,12.77
2023-03-18T13:46:03.315Z,12.51
2023-03-18T13:49:42.226Z,12.33
2023-03-18T13:53:00.277Z,12.30
2023-03-18T13:56:53.408Z,12.35
2023-03-18T14:00:34.922Z,12.51
2023-03-18T14:04:04.348Z,12.39
2023-03-18T14:07:26.586Z,12.73
2023-03-18T14:11:32.417Z,12.81
2023-03-18T14:15:19.288Z,12.90
2023-03-18T14:17:58.811Z,13.03
2023-03-18T14:20:42.581Z,13.13
2023-03-18T14:23:40.947Z,13.18
2023-03-18T14:26:22.705Z,13.34
2023-03-18T14:29:16.353Z,12.91
2023-03-18T14:31:58.472Z,13.15
2023-03-18T14:35:35.959Z,13.17
2023-03-18T14:39:11.562Z,13.21
2023-03-18T14:42:35.112Z,13.40
2023-03-18T14:46:18.024Z,13.40
2023-03-18T14:49:43.971Z,13.24
2023-03-18T15:00:43.411Z,12.81
2023-03-18T15:04:24.170Z,12.85
2023-03-18T15:07:58.294Z,12.92
2023-03-18T15:15:45.250Z,12.75
2023-03-18T15:19:23.680Z,12.82
2023-03-18T15:23:29.202Z,12.65
2023-03-18T15:27:07.384Z,12.52
2023-03-18T15:30:36.313Z,12.50
2023-03-18T15:34:13.141Z,12.40
2023-03-18T15:37:42.832Z,12.37
2023-03-18T15:41:08.653Z,12.38
2023-03-18T15:44:31.267Z,12.35
2023-03-18T15:47:52.577Z,12.36
2023-03-18T15:50:34.878Z,12.38
2023-03-18T15:53:19.735Z,12.33
2023-03-18T15:55:55.852Z,12.26
2023-03-18T15:58:36.583Z,12.21
2023-03-18T16:01:16.087Z,12.14
2023-03-18T16:04:51.013Z,12.05
2023-03-18T16:08:14.749Z,12.02
2023-03-18T16:11:55.713Z,11.93
2023-03-18T16:15:25.088Z,11.87
2023-03-18T16:17:59.623Z,11.85
2023-03-18T16:20:33.973Z,11.78
2023-03-18T16:23:15.103Z,11.71
2023-03-18T16:25:51.733Z,11.65
2023-03-18T16:28:28.534Z,11.61
2023-03-18T16:31:02.264Z,11.55
2023-03-18T16:34:23.022Z,11.48
2023-03-18T16:37:49.308Z,11.36
2023-03-18T16:41:24.121Z,11.28
2023-03-18T16:47:47.300Z,11.16
2023-03-18T16:50:23.950Z,11.11
2023-03-18T16:52:57.342Z,11.02
2023-03-18T16:55:31.760Z,11.01
2023-03-18T16:58:05.633Z,10.97
2023-03-18T17:00:39.917Z,10.86
2023-03-18T17:04:10.344Z,10.74
2023-03-18T17:07:40.432Z,10.67
2023-03-18T17:11:19.982Z,10.53
2023-03-18T17:14:34.212Z,10.46
2023-03-18T17:17:59.024Z,10.43
2023-03-18T17:20:34.173Z,10.41
2023-03-18T17:23:07.402Z,10.37
2023-03-18T17:25:40.704Z,10.27
2023-03-18T17:28:21.122Z,10.13
2023-03-18T17:30:56.805Z,10.01
2023-03-18T17:34:21.634Z,9.90
2023-03-18T17:37:41.371Z,9.77
2023-03-18T17:41:21.488Z,9.72
2023-03-18T17:44:43.772Z,9.67
2023-03-18T17:47:41.891Z,9.65
2023-03-18T17:50:19.965Z,9.61
2023-03-18T17:53:02.683Z,9.57
2023-03-18T17:55:43.484Z,9.50
2023-03-18T17:58:22.637Z,9.40
2023-03-18T18:01:02.201Z,9.39
2023-03-18T18:03:38.729Z,9.30
2023-03-18T18:06:13.926Z,9.26
2023-03-18T18:08:47.850Z,9.20
2023-03-18T18:11:24.314Z,9.14
2023-03-18T18:14:01.322Z,9.07
2023-03-18T18:16:36.564Z,9.00
2023-03-18T18:20:18.187Z,8.90
2023-03-18T18:23:51.766Z,8.80
2023-03-18T18:27:25.368Z,8.76
2023-03-18T18:31:00.544Z,8.71
2023-03-18T18:33:37.299Z,8.68
2023-03-18T18:36:13.707Z,8.63
2023-03-18T18:38:49.126Z,8.56
2023-03-18T18:41:23.946Z,8.51
2023-03-18T18:43:57.723Z,8.48
2023-03-18T18:46:32.260Z,8.46
2023-03-18T18:49:06.592Z,8.39
2023-03-18T18:51:41.872Z,8.35
2023-03-18T18:54:16.923Z,8.30
2023-03-18T18:56:51.113Z,8.21
2023-03-18T18:59:29.263Z,8.18
2023-03-18T19:02:04.071Z,8.11
2023-03-18T19:05:24.914Z,8.07
2023-03-18T19:08:52.434Z,8.01
2023-03-18T19:12:21.324Z,7.80
2023-03-18T19:15:54.552Z,7.56
2023-03-18T19:18:39.224Z,7.42
2023-03-18T19:21:13.627Z,7.43
2023-03-18T19:23:47.514Z,7.32
2023-03-18T19:26:21.824Z,7.11
2023-03-18T19:28:59.802Z,7.00
2023-03-18T19:31:36.350Z,6.91
2023-03-18T19:34:55.445Z,6.87
2023-03-18T19:38:30.780Z,6.93
2023-03-18T19:42:07.613Z,6.94
2023-03-18T19:48:41.720Z,6.90
2023-03-18T19:51:16.311Z,6.87
2023-03-18T19:53:50.367Z,6.82
2023-03-18T19:56:31.650Z,6.72
2023-03-18T19:59:04.542Z,6.68
2023-03-18T20:01:37.614Z,6.62
2023-03-18T20:05:27.831Z,6.54
2023-03-18T20:09:02.531Z,6.38
2023-03-18T20:12:39.750Z,6.38
2023-03-18T20:16:17.035Z,6.28
2023-03-18T20:19:33.394Z,6.13
2023-03-18T20:22:48.545Z,5.87
2023-03-18T20:26:06.925Z,5.81
2023-03-18T20:29:38.894Z,5.65
2023-03-18T20:33:10.385Z,5.50
2023-03-18T20:35:49.295Z,5.54
2023-03-18T20:38:30.673Z,5.45
2023-03-18T20:41:04.243Z,5.25
2023-03-18T20:43:39.935Z,5.21
2023-03-18T20:46:16.394Z,5.17
2023-03-18T20:49:45.843Z,4.97
2023-03-18T20:53:18.862Z,4.93
2023-03-18T20:56:35.803Z,4.89
2023-03-18T20:59:49.025Z,4.89
2023-03-18T21:03:28.110Z,4.96
2023-03-18T21:06:04.459Z,5.00
2023-03-18T21:08:37.746Z,5.01
2023-03-18T21:11:22.038Z,5.00
2023-03-18T21:13:55.273Z,5.00
2023-03-18T21:16:29.668Z,4.97
2023-03-18T21:20:19.322Z,4.93
2023-03-18T21:24:04.147Z,4.91
2023-03-18T21:27:39.596Z,4.83
2023-03-18T21:31:25.672Z,4.77
2023-03-18T21:34:00.238Z,4.63
2023-03-18T21:36:33.302Z,4.54
2023-03-18T21:39:06.087Z,4.49
2023-03-18T21:41:39.890Z,4.40
2023-03-18T21:44:14.751Z,4.43
2023-03-18T21:46:47.552Z,4.45
2023-03-18T21:50:22.273Z,4.46
2023-03-18T21:53:49.300Z,4.40
2023-03-18T21:57:25.869Z,4.35
2023-03-18T22:00:29.640Z,4.36
2023-03-18T22:03:19.455Z,4.36
2023-03-18T22:05:51.805Z,4.36
2023-03-18T22:08:25.823Z,4.26
2023-03-18T22:10:58.962Z,4.23
2023-03-18T22:13:33.836Z,4.24
2023-03-18T22:16:15.311Z,4.23
2023-03-18T22:18:49.026Z,4.21
2023-03-18T22:21:21.407Z,4.23
2023-03-18T22:23:58.704Z,4.18
2023-03-18T22:26:31.906Z,4.19
2023-03-18T22:29:04.963Z,4.20
2023-03-18T22:31:38.964Z,4.19
2023-03-18T22:34:24.544Z,4.16
2023-03-18T22:36:57.537Z,4.15
2023-03-18T22:39:30.549Z,4.11
2023-03-18T22:42:03.636Z,4.09
2023-03-18T22:44:37.844Z,4.08
2023-03-18T22:47:15.892Z,4.04
2023-03-18T22:50:33.392Z,3.99
2023-03-18T22:53:55.805Z,3.97
2023-03-18T22:57:33.463Z,3.97
2023-03-18T23:01:12.192Z,4.00
2023-03-18T23:03:47.374Z,4.04
2023-03-18T23:06:24.216Z,4.04
2023-03-18T23:08:57.328Z,4.03
2023-03-18T23:11:30.897Z,4.02
2023-03-18T23:14:04.129Z,4.02
2023-03-18T23:16:38.838Z,4.05
2023-03-18T23:20:14.237Z,4.07
2023-03-18T23:23:49.440Z,4.08
2023-03-18T23:33:32.529Z,4.02
2023-03-18T23:36:05.418Z,4.00
2023-03-18T23:38:38.731Z,3.99
2023-03-18T23:41:12.009Z,4.00
2023-03-18T23:43:44.743Z,3.99
2023-03-18T23:46:29.403Z,3.97
2023-03-18T23:49:02.133Z,3.94
2023-03-18T23:51:35.358Z,3.94
2023-03-18T23:54:08.540Z,3.94
2023-03-18T23:56:41.471Z,3.92
2023-03-18T23:59:16.471Z,3.86
